PATC/TNC METAR and TAF weather

Enter ICAO airport designator
Station Type Date Time Source
PATC METAR 2019/06/18 12:55 UTC NOAA

PATC 181255Z AUTO 03023KT 10SM CLR 07/04 A2982 RMK AO2 PK WND 03026/1220 SLP098 T00660043


Station Type Date Time Source
PATC Decoded METAR 2019/06/18 12:55 UTC NOAA

Tin City Airways Facilities Sector, AK, United States (PATC) 65-34N 167-55W
Jun 18, 2019 - 08:55 AM EDT / 2019.06.18 1255 UTC
Wind: from the NNE (030 degrees) at 26 MPH (23 KT):0
Visibility: 10 mile(s):0
Sky conditions: clear
Temperature: 43.9 F (6.6 C)
Dew Point: 39.7 F (4.3 C)
Relative Humidity: 85%
Pressure (altimeter): 29.82 in. Hg (1009 hPa)
ob: PATC 181255Z AUTO 03023KT 10SM CLR 07/04 A2982 RMK AO2 PK WND 03026/1220 SLP098 T00660043
cycle: 13

Station Type Date Time Source
PATC TAF 2016/08/27 04:12 UTC NOAA

TAF PATC 270400Z 2704/2810 18012G18KT 0400 FG OVC002 QNH3015INS TX10/2718Z TN06/2710Z

Example: see airport list